sensor_id;sensor_type;location;lat;lon;timestamp;P1;P2;P0
83024;PMS5003;72839;53.326;-1.496;2023-09-18T00:02:03;14;14;
83024;PMS5003;72839;53.326;-1.496;2023-09-18T00:04:33;17;17;
83024;PMS5003;72839;53.326;-1.496;2023-09-18T00:09:27;14;14;
83024;PMS5003;72839;53.326;-1.496;2023-09-18T00:12:06;14;14;
83024;PMS5003;72839;53.326;-1.496;2023-09-18T00:15:03;21;19;
83024;PMS5003;72839;53.326;-1.496;2023-09-18T00:17:48;18;12;
83024;PMS5003;72839;53.326;-1.496;2023-09-18T00:20:35;15;15;
83024;PMS5003;72839;53.326;-1.496;2023-09-18T00:23:18;14;14;
83024;PMS5003;72839;53.326;-1.496;2023-09-18T00:27:05;17;17;
83024;PMS5003;72839;53.326;-1.496;2023-09-18T00:32:31;18;18;
83024;PMS5003;72839;53.326;-1.496;2023-09-18T00:36:56;11;11;
83024;PMS5003;72839;53.326;-1.496;2023-09-18T00:39:57;14;14;
83024;PMS5003;72839;53.326;-1.496;2023-09-18T00:42:56;10;10;
83024;PMS5003;72839;53.326;-1.496;2023-09-18T00:45:58;7;7;
83024;PMS5003;72839;53.326;-1.496;2023-09-18T00:49:16;13;13;
83024;PMS5003;72839;53.326;-1.496;2023-09-18T00:52:14;11;11;
83024;PMS5003;72839;53.326;-1.496;2023-09-18T00:55:36;19;19;
83024;PMS5003;72839;53.326;-1.496;2023-09-18T00:59:15;17;17;
83024;PMS5003;72839;53.326;-1.496;2023-09-18T01:03:38;21;21;
83024;PMS5003;72839;53.326;-1.496;2023-09-18T01:07:11;16;16;
83024;PMS5003;72839;53.326;-1.496;2023-09-18T01:10:47;14;14;
83024;PMS5003;72839;53.326;-1.496;2023-09-18T01:13:41;14;14;
83024;PMS5003;72839;53.326;-1.496;2023-09-18T01:18:27;12;12;
83024;PMS5003;72839;53.326;-1.496;2023-09-18T01:22:17;12;12;
83024;PMS5003;72839;53.326;-1.496;2023-09-18T01:25:31;14;14;
83024;PMS5003;72839;53.326;-1.496;2023-09-18T01:27:59;13;13;
83024;PMS5003;72839;53.326;-1.496;2023-09-18T01:32:58;18;18;
83024;PMS5003;72839;53.326;-1.496;2023-09-18T01:36:01;22;16;
83024;PMS5003;72839;53.326;-1.496;2023-09-18T01:38:31;11;11;
83024;PMS5003;72839;53.326;-1.496;2023-09-18T01:41:19;16;16;
83024;PMS5003;72839;53.326;-1.496;2023-09-18T01:46:13;18;18;
83024;PMS5003;72839;53.326;-1.496;2023-09-18T01:49:26;21;18;
83024;PMS5003;72839;53.326;-1.496;2023-09-18T01:52:27;6;6;
83024;PMS5003;72839;53.326;-1.496;2023-09-18T01:55:42;16;13;
83024;PMS5003;72839;53.326;-1.496;2023-09-18T01:58:26;13;13;
83024;PMS5003;72839;53.326;-1.496;2023-09-18T02:01:03;18;17;
83024;PMS5003;72839;53.326;-1.496;2023-09-18T02:04:38;12;12;
83024;PMS5003;72839;53.326;-1.496;2023-09-18T02:07:07;17;17;
83024;PMS5003;72839;53.326;-1.496;2023-09-18T02:09:45;15;15;
83024;PMS5003;72839;53.326;-1.496;2023-09-18T02:12:21;9;9;
83024;PMS5003;72839;53.326;-1.496;2023-09-18T02:14:51;16;16;
83024;PMS5003;72839;53.326;-1.496;2023-09-18T02:17:36;18;18;
83024;PMS5003;72839;53.326;-1.496;2023-09-18T02:20:21;16;16;
83024;PMS5003;72839;53.326;-1.496;2023-09-18T02:24:06;15;14;
83024;PMS5003;72839;53.326;-1.496;2023-09-18T02:27:16;12;12;
83024;PMS5003;72839;53.326;-1.496;2023-09-18T02:29:58;9;9;
83024;PMS5003;72839;53.326;-1.496;2023-09-18T02:32:33;15;15;
83024;PMS5003;72839;53.326;-1.496;2023-09-18T02:35:17;14;14;
83024;PMS5003;72839;53.326;-1.496;2023-09-18T02:37:42;13;13;
83024;PMS5003;72839;53.326;-1.496;2023-09-18T02:40:25;13;13;
83024;PMS5003;72839;53.326;-1.496;2023-09-18T02:43:46;14;14;
83024;PMS5003;72839;53.326;-1.496;2023-09-18T02:46:25;13;13;
83024;PMS5003;72839;53.326;-1.496;2023-09-18T02:49:17;17;17;
83024;PMS5003;72839;53.326;-1.496;2023-09-18T02:52:25;16;16;
83024;PMS5003;72839;53.326;-1.496;2023-09-18T02:54:52;15;15;
83024;PMS5003;72839;53.326;-1.496;2023-09-18T02:57:22;22;20;
83024;PMS5003;72839;53.326;-1.496;2023-09-18T03:00:46;11;8;
83024;PMS5003;72839;53.326;-1.496;2023-09-18T03:03:49;19;17;
83024;PMS5003;72839;53.326;-1.496;2023-09-18T03:06:48;18;18;
83024;PMS5003;72839;53.326;-1.496;2023-09-18T03:09:37;17;17;
83024;PMS5003;72839;53.326;-1.496;2023-09-18T03:12:05;16;16;
83024;PMS5003;72839;53.326;-1.496;2023-09-18T03:17:32;15;15;
83024;PMS5003;72839;53.326;-1.496;2023-09-18T03:20:08;10;10;
83024;PMS5003;72839;53.326;-1.496;2023-09-18T03:23:05;16;16;
83024;PMS5003;72839;53.326;-1.496;2023-09-18T03:27:47;12;12;
83024;PMS5003;72839;53.326;-1.496;2023-09-18T03:30:13;12;12;
83024;PMS5003;72839;53.326;-1.496;2023-09-18T03:32:57;13;13;
83024;PMS5003;72839;53.326;-1.496;2023-09-18T03:35:24;15;15;
83024;PMS5003;72839;53.326;-1.496;2023-09-18T03:38:15;12;12;
83024;PMS5003;72839;53.326;-1.496;2023-09-18T03:40:59;18;18;
83024;PMS5003;72839;53.326;-1.496;2023-09-18T03:44:24;16;16;
83024;PMS5003;72839;53.326;-1.496;2023-09-18T03:47:16;17;17;
83024;PMS5003;72839;53.326;-1.496;2023-09-18T03:49:54;18;18;
83024;PMS5003;72839;53.326;-1.496;2023-09-18T03:54:02;8;8;
83024;PMS5003;72839;53.326;-1.496;2023-09-18T03:56:43;13;13;
83024;PMS5003;72839;53.326;-1.496;2023-09-18T04:00:37;14;14;
83024;PMS5003;72839;53.326;-1.496;2023-09-18T04:03:04;13;13;
83024;PMS5003;72839;53.326;-1.496;2023-09-18T04:06:10;15;15;
83024;PMS5003;72839;53.326;-1.496;2023-09-18T04:08:49;11;11;
83024;PMS5003;72839;53.326;-1.496;2023-09-18T04:12:00;20;20;
83024;PMS5003;72839;53.326;-1.496;2023-09-18T04:15:14;15;15;
83024;PMS5003;72839;53.326;-1.496;2023-09-18T04:18:29;13;13;
83024;PMS5003;72839;53.326;-1.496;2023-09-18T04:21:44;16;15;
83024;PMS5003;72839;53.326;-1.496;2023-09-18T04:25:03;12;12;
83024;PMS5003;72839;53.326;-1.496;2023-09-18T04:27:47;18;18;
83024;PMS5003;72839;53.326;-1.496;2023-09-18T04:30:42;12;11;
83024;PMS5003;72839;53.326;-1.496;2023-09-18T04:33:21;15;15;
83024;PMS5003;72839;53.326;-1.496;2023-09-18T04:36:11;12;12;
83024;PMS5003;72839;53.326;-1.496;2023-09-18T04:38:41;17;17;
83024;PMS5003;72839;53.326;-1.496;2023-09-18T04:42:45;18;17;
83024;PMS5003;72839;53.326;-1.496;2023-09-18T04:45:43;16;16;
83024;PMS5003;72839;53.326;-1.496;2023-09-18T04:49:26;18;18;
83024;PMS5003;72839;53.326;-1.496;2023-09-18T04:51:53;13;13;
83024;PMS5003;72839;53.326;-1.496;2023-09-18T04:54:25;11;11;
83024;PMS5003;72839;53.326;-1.496;2023-09-18T04:59:08;18;16;
83024;PMS5003;72839;53.326;-1.496;2023-09-18T05:02:13;15;15;
83024;PMS5003;72839;53.326;-1.496;2023-09-18T05:04:55;14;14;
83024;PMS5003;72839;53.326;-1.496;2023-09-18T05:09:25;18;16;
83024;PMS5003;72839;53.326;-1.496;2023-09-18T05:12:08;13;13;
83024;PMS5003;72839;53.326;-1.496;2023-09-18T05:16:19;15;15;
83024;PMS5003;72839;53.326;-1.496;2023-09-18T05:19:34;10;10;
83024;PMS5003;72839;53.326;-1.496;2023-09-18T05:22:01;6;6;
83024;PMS5003;72839;53.326;-1.496;2023-09-18T05:25:38;16;16;
83024;PMS5003;72839;53.326;-1.496;2023-09-18T05:29:08;12;12;
83024;PMS5003;72839;53.326;-1.496;2023-09-18T05:32:56;15;15;
83024;PMS5003;72839;53.326;-1.496;2023-09-18T05:35:32;13;13;
83024;PMS5003;72839;53.326;-1.496;2023-09-18T05:38:28;17;11;
83024;PMS5003;72839;53.326;-1.496;2023-09-18T05:43:53;13;12;
83024;PMS5003;72839;53.326;-1.496;2023-09-18T05:48:06;16;16;
83024;PMS5003;72839;53.326;-1.496;2023-09-18T05:51:53;5;5;
83024;PMS5003;72839;53.326;-1.496;2023-09-18T05:54:20;11;11;
83024;PMS5003;72839;53.326;-1.496;2023-09-18T06:02:53;15;13;
83024;PMS5003;72839;53.326;-1.496;2023-09-18T06:05:40;18;17;
83024;PMS5003;72839;53.326;-1.496;2023-09-18T06:12:24;11;11;
83024;PMS5003;72839;53.326;-1.496;2023-09-18T06:16:53;10;10;
83024;PMS5003;72839;53.326;-1.496;2023-09-18T06:22:02;12;12;
83024;PMS5003;72839;53.326;-1.496;2023-09-18T06:28:52;9;9;
83024;PMS5003;72839;53.326;-1.496;2023-09-18T06:32:07;9;9;
83024;PMS5003;72839;53.326;-1.496;2023-09-18T06:36:15;14;14;
83024;PMS5003;72839;53.326;-1.496;2023-09-18T06:38:59;8;8;
83024;PMS5003;72839;53.326;-1.496;2023-09-18T06:42:39;6;6;
83024;PMS5003;72839;53.326;-1.496;2023-09-18T06:46:21;16;16;
83024;PMS5003;72839;53.326;-1.496;2023-09-18T06:51:37;10;10;
83024;PMS5003;72839;53.326;-1.496;2023-09-18T06:55:01;12;12;
83024;PMS5003;72839;53.326;-1.496;2023-09-18T06:57:36;12;12;
83024;PMS5003;72839;53.326;-1.496;2023-09-18T07:01:33;9;9;
83024;PMS5003;72839;53.326;-1.496;2023-09-18T07:05:22;5;5;
83024;PMS5003;72839;53.326;-1.496;2023-09-18T07:08:01;11;11;
83024;PMS5003;72839;53.326;-1.496;2023-09-18T07:10:28;10;10;
83024;PMS5003;72839;53.326;-1.496;2023-09-18T07:13:58;10;10;
83024;PMS5003;72839;53.326;-1.496;2023-09-18T07:16:31;12;11;
83024;PMS5003;72839;53.326;-1.496;2023-09-18T07:21:43;9;9;
83024;PMS5003;72839;53.326;-1.496;2023-09-18T07:26:44;15;13;
83024;PMS5003;72839;53.326;-1.496;2023-09-18T07:29:32;8;8;
83024;PMS5003;72839;53.326;-1.496;2023-09-18T07:32:08;6;6;
83024;PMS5003;72839;53.326;-1.496;2023-09-18T07:34:40;9;9;
83024;PMS5003;72839;53.326;-1.496;2023-09-18T07:38:56;13;12;
83024;PMS5003;72839;53.326;-1.496;2023-09-18T07:41:23;11;11;
83024;PMS5003;72839;53.326;-1.496;2023-09-18T07:45:48;8;8;
83024;PMS5003;72839;53.326;-1.496;2023-09-18T07:48:41;9;9;
83024;PMS5003;72839;53.326;-1.496;2023-09-18T07:52:05;6;6;
83024;PMS5003;72839;53.326;-1.496;2023-09-18T07:54:45;6;6;
83024;PMS5003;72839;53.326;-1.496;2023-09-18T07:57:51;7;7;
83024;PMS5003;72839;53.326;-1.496;2023-09-18T08:01:01;10;10;
83024;PMS5003;72839;53.326;-1.496;2023-09-18T08:03:35;8;7;
83024;PMS5003;72839;53.326;-1.496;2023-09-18T08:06:27;6;6;
83024;PMS5003;72839;53.326;-1.496;2023-09-18T08:09:09;10;10;
83024;PMS5003;72839;53.326;-1.496;2023-09-18T08:11:55;7;7;
83024;PMS5003;72839;53.326;-1.496;2023-09-18T08:17:49;8;8;
83024;PMS5003;72839;53.326;-1.496;2023-09-18T08:21:13;5;5;
83024;PMS5003;72839;53.326;-1.496;2023-09-18T08:26:06;11;10;
83024;PMS5003;72839;53.326;-1.496;2023-09-18T08:29:35;17;17;
83024;PMS5003;72839;53.326;-1.496;2023-09-18T08:32:46;19;19;
83024;PMS5003;72839;53.326;-1.496;2023-09-18T08:35:22;20;20;
83024;PMS5003;72839;53.326;-1.496;2023-09-18T08:38:25;18;18;
83024;PMS5003;72839;53.326;-1.496;2023-09-18T08:41:18;21;19;
83024;PMS5003;72839;53.326;-1.496;2023-09-18T08:44:51;21;21;
83024;PMS5003;72839;53.326;-1.496;2023-09-18T08:47:48;20;20;
83024;PMS5003;72839;53.326;-1.496;2023-09-18T08:50:26;16;16;
83024;PMS5003;72839;53.326;-1.496;2023-09-18T08:53:14;18;17;
83024;PMS5003;72839;53.326;-1.496;2023-09-18T08:56:42;15;15;
83024;PMS5003;72839;53.326;-1.496;2023-09-18T08:59:27;15;15;
83024;PMS5003;72839;53.326;-1.496;2023-09-18T09:02:14;15;15;
83024;PMS5003;72839;53.326;-1.496;2023-09-18T09:05:06;18;18;
83024;PMS5003;72839;53.326;-1.496;2023-09-18T09:08:06;13;13;
83024;PMS5003;72839;53.326;-1.496;2023-09-18T09:10:32;14;14;
83024;PMS5003;72839;53.326;-1.496;2023-09-18T09:13:18;16;16;
83024;PMS5003;72839;53.326;-1.496;2023-09-18T09:16:17;11;11;
83024;PMS5003;72839;53.326;-1.496;2023-09-18T09:26:42;10;10;
83024;PMS5003;72839;53.326;-1.496;2023-09-18T09:29:25;13;13;
83024;PMS5003;72839;53.326;-1.496;2023-09-18T09:31:51;11;11;
83024;PMS5003;72839;53.326;-1.496;2023-09-18T09:35:20;12;10;
83024;PMS5003;72839;53.326;-1.496;2023-09-18T09:37:45;9;9;
83024;PMS5003;72839;53.326;-1.496;2023-09-18T09:40:35;7;7;
83024;PMS5003;72839;53.326;-1.496;2023-09-18T09:43:11;8;8;
83024;PMS5003;72839;53.326;-1.496;2023-09-18T09:45:44;9;9;
83024;PMS5003;72839;53.326;-1.496;2023-09-18T09:51:26;9;9;
83024;PMS5003;72839;53.326;-1.496;2023-09-18T09:54:24;7;7;
83024;PMS5003;72839;53.326;-1.496;2023-09-18T09:57:46;7;7;
83024;PMS5003;72839;53.326;-1.496;2023-09-18T10:00:23;5;5;
83024;PMS5003;72839;53.326;-1.496;2023-09-18T10:04:25;6;6;
83024;PMS5003;72839;53.326;-1.496;2023-09-18T10:07:14;4;4;
83024;PMS5003;72839;53.326;-1.496;2023-09-18T10:10:10;5;5;
83024;PMS5003;72839;53.326;-1.496;2023-09-18T10:13:46;5;5;
83024;PMS5003;72839;53.326;-1.496;2023-09-18T10:17:15;5;5;
83024;PMS5003;72839;53.326;-1.496;2023-09-18T10:20:37;6;6;
83024;PMS5003;72839;53.326;-1.496;2023-09-18T10:23:30;3;3;
83024;PMS5003;72839;53.326;-1.496;2023-09-18T10:26:38;6;6;
83024;PMS5003;72839;53.326;-1.496;2023-09-18T10:29:23;2;2;
83024;PMS5003;72839;53.326;-1.496;2023-09-18T10:31:54;4;4;
83024;PMS5003;72839;53.326;-1.496;2023-09-18T10:34:30;5;5;
83024;PMS5003;72839;53.326;-1.496;2023-09-18T10:37:30;4;4;
83024;PMS5003;72839;53.326;-1.496;2023-09-18T10:40:12;5;2;
83024;PMS5003;72839;53.326;-1.496;2023-09-18T10:43:18;3;3;
83024;PMS5003;72839;53.326;-1.496;2023-09-18T10:45:58;8;6;
83024;PMS5003;72839;53.326;-1.496;2023-09-18T10:48:26;5;5;
83024;PMS5003;72839;53.326;-1.496;2023-09-18T10:51:19;3;3;
83024;PMS5003;72839;53.326;-1.496;2023-09-18T10:54:26;4;4;
83024;PMS5003;72839;53.326;-1.496;2023-09-18T10:57:19;3;3;
83024;PMS5003;72839;53.326;-1.496;2023-09-18T10:59:47;4;4;
83024;PMS5003;72839;53.326;-1.496;2023-09-18T11:04:31;3;3;
83024;PMS5003;72839;53.326;-1.496;2023-09-18T11:09:18;3;3;
83024;PMS5003;72839;53.326;-1.496;2023-09-18T11:12:11;2;2;
83024;PMS5003;72839;53.326;-1.496;2023-09-18T11:14:59;3;3;
83024;PMS5003;72839;53.326;-1.496;2023-09-18T11:17:29;2;2;
83024;PMS5003;72839;53.326;-1.496;2023-09-18T11:21:33;4;3;
83024;PMS5003;72839;53.326;-1.496;2023-09-18T11:24:28;2;2;
83024;PMS5003;72839;53.326;-1.496;2023-09-18T11:27:27;3;3;
83024;PMS5003;72839;53.326;-1.496;2023-09-18T11:30:06;2;2;
83024;PMS5003;72839;53.326;-1.496;2023-09-18T11:33:13;2;2;
83024;PMS5003;72839;53.326;-1.496;2023-09-18T11:36:11;3;3;
83024;PMS5003;72839;53.326;-1.496;2023-09-18T11:38:51;4;4;
83024;PMS5003;72839;53.326;-1.496;2023-09-18T11:42:33;3;2;
83024;PMS5003;72839;53.326;-1.496;2023-09-18T11:45:48;5;5;
83024;PMS5003;72839;53.326;-1.496;2023-09-18T11:48:23;2;2;
83024;PMS5003;72839;53.326;-1.496;2023-09-18T11:51:46;0;0;
83024;PMS5003;72839;53.326;-1.496;2023-09-18T11:55:53;1;1;
83024;PMS5003;72839;53.326;-1.496;2023-09-18T11:58:19;3;3;
83024;PMS5003;72839;53.326;-1.496;2023-09-18T12:00:56;2;2;
83024;PMS5003;72839;53.326;-1.496;2023-09-18T12:03:45;0;0;
83024;PMS5003;72839;53.326;-1.496;2023-09-18T12:06:23;1;1;
83024;PMS5003;72839;53.326;-1.496;2023-09-18T12:10:31;2;2;
83024;PMS5003;72839;53.326;-1.496;2023-09-18T12:13:26;5;4;
83024;PMS5003;72839;53.326;-1.496;2023-09-18T12:19:16;2;2;
83024;PMS5003;72839;53.326;-1.496;2023-09-18T12:22:57;2;2;
83024;PMS5003;72839;53.326;-1.496;2023-09-18T12:27:24;2;2;
83024;PMS5003;72839;53.326;-1.496;2023-09-18T12:32:15;1;1;
83024;PMS5003;72839;53.326;-1.496;2023-09-18T12:34:40;0;0;
83024;PMS5003;72839;53.326;-1.496;2023-09-18T12:37:21;0;0;
83024;PMS5003;72839;53.326;-1.496;2023-09-18T12:39:49;1;1;
83024;PMS5003;72839;53.326;-1.496;2023-09-18T12:42:22;1;1;
83024;PMS5003;72839;53.326;-1.496;2023-09-18T12:45:09;1;1;
83024;PMS5003;72839;53.326;-1.496;2023-09-18T12:47:53;1;1;
83024;PMS5003;72839;53.326;-1.496;2023-09-18T12:50:43;1;1;
83024;PMS5003;72839;53.326;-1.496;2023-09-18T12:56:55;0;0;
83024;PMS5003;72839;53.326;-1.496;2023-09-18T12:59:35;0;0;
83024;PMS5003;72839;53.326;-1.496;2023-09-18T13:02:34;0;0;
83024;PMS5003;72839;53.326;-1.496;2023-09-18T13:05:19;1;1;
83024;PMS5003;72839;53.326;-1.496;2023-09-18T13:08:02;0;0;
83024;PMS5003;72839;53.326;-1.496;2023-09-18T13:10:47;1;1;
83024;PMS5003;72839;53.326;-1.496;2023-09-18T13:13:28;0;0;
83024;PMS5003;72839;53.326;-1.496;2023-09-18T13:17:13;0;0;
83024;PMS5003;72839;53.326;-1.496;2023-09-18T13:21:41;2;1;
83024;PMS5003;72839;53.326;-1.496;2023-09-18T13:24:05;0;0;
83024;PMS5003;72839;53.326;-1.496;2023-09-18T13:26:32;0;0;
83024;PMS5003;72839;53.326;-1.496;2023-09-18T13:30:09;1;1;
83024;PMS5003;72839;53.326;-1.496;2023-09-18T13:33:24;0;0;
83024;PMS5003;72839;53.326;-1.496;2023-09-18T13:35:57;0;0;
83024;PMS5003;72839;53.326;-1.496;2023-09-18T13:38:36;1;1;
83024;PMS5003;72839;53.326;-1.496;2023-09-18T13:41:33;0;0;
83024;PMS5003;72839;53.326;-1.496;2023-09-18T13:44:07;0;0;
83024;PMS5003;72839;53.326;-1.496;2023-09-18T13:46:33;1;1;
83024;PMS5003;72839;53.326;-1.496;2023-09-18T13:49:09;1;1;
83024;PMS5003;72839;53.326;-1.496;2023-09-18T13:51:52;1;1;
83024;PMS5003;72839;53.326;-1.496;2023-09-18T13:54:25;0;0;
83024;PMS5003;72839;53.326;-1.496;2023-09-18T13:57:03;1;1;
83024;PMS5003;72839;53.326;-1.496;2023-09-18T14:00:11;0;0;
83024;PMS5003;72839;53.326;-1.496;2023-09-18T14:02:41;0;0;
83024;PMS5003;72839;53.326;-1.496;2023-09-18T14:05:40;0;0;
83024;PMS5003;72839;53.326;-1.496;2023-09-18T14:08:19;0;0;
83024;PMS5003;72839;53.326;-1.496;2023-09-18T14:11:10;0;0;
83024;PMS5003;72839;53.326;-1.496;2023-09-18T14:13:38;1;1;
83024;PMS5003;72839;53.326;-1.496;2023-09-18T14:16:29;0;0;
83024;PMS5003;72839;53.326;-1.496;2023-09-18T14:19:03;0;0;
83024;PMS5003;72839;53.326;-1.496;2023-09-18T14:22:20;0;0;
83024;PMS5003;72839;53.326;-1.496;2023-09-18T14:24:56;0;0;
83024;PMS5003;72839;53.326;-1.496;2023-09-18T14:27:25;1;1;
83024;PMS5003;72839;53.326;-1.496;2023-09-18T14:30:06;0;0;
83024;PMS5003;72839;53.326;-1.496;2023-09-18T14:34:01;1;1;
83024;PMS5003;72839;53.326;-1.496;2023-09-18T14:37:01;0;0;
83024;PMS5003;72839;53.326;-1.496;2023-09-18T14:39:48;0;0;
83024;PMS5003;72839;53.326;-1.496;2023-09-18T14:42:35;0;0;
83024;PMS5003;72839;53.326;-1.496;2023-09-18T14:45:03;1;1;
83024;PMS5003;72839;53.326;-1.496;2023-09-18T14:47:57;3;0;
83024;PMS5003;72839;53.326;-1.496;2023-09-18T14:50:33;0;0;
83024;PMS5003;72839;53.326;-1.496;2023-09-18T14:52:59;0;0;
83024;PMS5003;72839;53.326;-1.496;2023-09-18T14:55:27;0;0;
83024;PMS5003;72839;53.326;-1.496;2023-09-18T14:58:09;1;1;
83024;PMS5003;72839;53.326;-1.496;2023-09-18T15:01:22;1;1;
83024;PMS5003;72839;53.326;-1.496;2023-09-18T15:04:59;0;0;
83024;PMS5003;72839;53.326;-1.496;2023-09-18T15:09:12;0;0;
83024;PMS5003;72839;53.326;-1.496;2023-09-18T15:12:07;0;0;
83024;PMS5003;72839;53.326;-1.496;2023-09-18T15:15:27;1;1;
83024;PMS5003;72839;53.326;-1.496;2023-09-18T15:18:22;1;1;
83024;PMS5003;72839;53.326;-1.496;2023-09-18T15:21:19;0;0;
83024;PMS5003;72839;53.326;-1.496;2023-09-18T15:23:47;0;0;
83024;PMS5003;72839;53.326;-1.496;2023-09-18T15:27:01;0;0;
83024;PMS5003;72839;53.326;-1.496;2023-09-18T15:29:49;1;1;
83024;PMS5003;72839;53.326;-1.496;2023-09-18T15:32:25;0;0;
83024;PMS5003;72839;53.326;-1.496;2023-09-18T15:36:25;0;0;
83024;PMS5003;72839;53.326;-1.496;2023-09-18T15:39:41;0;0;
83024;PMS5003;72839;53.326;-1.496;2023-09-18T15:44:41;0;0;
83024;PMS5003;72839;53.326;-1.496;2023-09-18T15:47:54;0;0;
83024;PMS5003;72839;53.326;-1.496;2023-09-18T15:50:23;1;1;
83024;PMS5003;72839;53.326;-1.496;2023-09-18T15:54:47;0;0;
83024;PMS5003;72839;53.326;-1.496;2023-09-18T15:58:36;0;0;
83024;PMS5003;72839;53.326;-1.496;2023-09-18T16:06:03;0;0;
83024;PMS5003;72839;53.326;-1.496;2023-09-18T16:09:25;2;0;
83024;PMS5003;72839;53.326;-1.496;2023-09-18T16:13:53;0;0;
83024;PMS5003;72839;53.326;-1.496;2023-09-18T16:17:55;1;1;
83024;PMS5003;72839;53.326;-1.496;2023-09-18T16:20:46;2;2;
83024;PMS5003;72839;53.326;-1.496;2023-09-18T16:23:36;2;2;
83024;PMS5003;72839;53.326;-1.496;2023-09-18T16:26:33;1;1;
83024;PMS5003;72839;53.326;-1.496;2023-09-18T16:29:51;0;0;
83024;PMS5003;72839;53.326;-1.496;2023-09-18T16:32:27;0;0;
83024;PMS5003;72839;53.326;-1.496;2023-09-18T16:35:58;0;0;
83024;PMS5003;72839;53.326;-1.496;2023-09-18T16:38:42;0;0;
83024;PMS5003;72839;53.326;-1.496;2023-09-18T16:41:18;2;2;
83024;PMS5003;72839;53.326;-1.496;2023-09-18T16:43:47;2;2;
83024;PMS5003;72839;53.326;-1.496;2023-09-18T16:48:52;11;8;
83024;PMS5003;72839;53.326;-1.496;2023-09-18T16:51:48;23;22;
83024;PMS5003;72839;53.326;-1.496;2023-09-18T16:54:26;17;15;
83024;PMS5003;72839;53.326;-1.496;2023-09-18T16:57:02;13;13;
83024;PMS5003;72839;53.326;-1.496;2023-09-18T17:00:53;22;20;
83024;PMS5003;72839;53.326;-1.496;2023-09-18T17:04:25;16;16;
83024;PMS5003;72839;53.326;-1.496;2023-09-18T17:08:28;13;13;
83024;PMS5003;72839;53.326;-1.496;2023-09-18T17:11:22;9;9;
83024;PMS5003;72839;53.326;-1.496;2023-09-18T17:16:18;6;6;
83024;PMS5003;72839;53.326;-1.496;2023-09-18T17:24:00;5;5;
83024;PMS5003;72839;53.326;-1.496;2023-09-18T17:27:07;7;7;
83024;PMS5003;72839;53.326;-1.496;2023-09-18T17:30:05;1;1;
83024;PMS5003;72839;53.326;-1.496;2023-09-18T17:33:07;3;3;
83024;PMS5003;72839;53.326;-1.496;2023-09-18T17:38:23;6;4;
83024;PMS5003;72839;53.326;-1.496;2023-09-18T17:42:11;2;2;
83024;PMS5003;72839;53.326;-1.496;2023-09-18T17:45:14;3;3;
83024;PMS5003;72839;53.326;-1.496;2023-09-18T17:52:35;1;1;
83024;PMS5003;72839;53.326;-1.496;2023-09-18T17:56:36;1;1;
83024;PMS5003;72839;53.326;-1.496;2023-09-18T18:06:11;3;2;
83024;PMS5003;72839;53.326;-1.496;2023-09-18T18:09:31;0;0;
83024;PMS5003;72839;53.326;-1.496;2023-09-18T18:12:07;2;1;
83024;PMS5003;72839;53.326;-1.496;2023-09-18T18:15:00;0;0;
83024;PMS5003;72839;53.326;-1.496;2023-09-18T18:19:07;1;1;
83024;PMS5003;72839;53.326;-1.496;2023-09-18T18:22:42;0;0;
83024;PMS5003;72839;53.326;-1.496;2023-09-18T18:25:23;11;3;
83024;PMS5003;72839;53.326;-1.496;2023-09-18T18:28:25;1;1;
83024;PMS5003;72839;53.326;-1.496;2023-09-18T18:36:11;0;0;
83024;PMS5003;72839;53.326;-1.496;2023-09-18T18:39:16;2;2;
83024;PMS5003;72839;53.326;-1.496;2023-09-18T18:41:56;1;1;
83024;PMS5003;72839;53.326;-1.496;2023-09-18T18:44:32;1;1;
83024;PMS5003;72839;53.326;-1.496;2023-09-18T18:47:47;1;1;
83024;PMS5003;72839;53.326;-1.496;2023-09-18T18:50:23;1;1;
83024;PMS5003;72839;53.326;-1.496;2023-09-18T18:53:05;0;0;
83024;PMS5003;72839;53.326;-1.496;2023-09-18T18:55:42;0;0;
83024;PMS5003;72839;53.326;-1.496;2023-09-18T18:59:13;3;3;
83024;PMS5003;72839;53.326;-1.496;2023-09-18T19:01:50;1;1;
83024;PMS5003;72839;53.326;-1.496;2023-09-18T19:04:29;1;1;
83024;PMS5003;72839;53.326;-1.496;2023-09-18T19:08:57;0;0;
83024;PMS5003;72839;53.326;-1.496;2023-09-18T19:11:23;0;0;
83024;PMS5003;72839;53.326;-1.496;2023-09-18T19:14:04;1;1;
83024;PMS5003;72839;53.326;-1.496;2023-09-18T19:18:21;2;1;
83024;PMS5003;72839;53.326;-1.496;2023-09-18T19:25:04;1;1;
83024;PMS5003;72839;53.326;-1.496;2023-09-18T19:29:06;1;1;
83024;PMS5003;72839;53.326;-1.496;2023-09-18T19:33:13;0;0;
83024;PMS5003;72839;53.326;-1.496;2023-09-18T19:37:00;0;0;
83024;PMS5003;72839;53.326;-1.496;2023-09-18T19:41:03;0;0;
83024;PMS5003;72839;53.326;-1.496;2023-09-18T19:44:56;0;0;
83024;PMS5003;72839;53.326;-1.496;2023-09-18T19:47:25;0;0;
83024;PMS5003;72839;53.326;-1.496;2023-09-18T19:50:19;1;1;
83024;PMS5003;72839;53.326;-1.496;2023-09-18T19:53:14;0;0;
83024;PMS5003;72839;53.326;-1.496;2023-09-18T19:55:56;0;0;
83024;PMS5003;72839;53.326;-1.496;2023-09-18T19:59:20;1;1;
83024;PMS5003;72839;53.326;-1.496;2023-09-18T20:02:32;0;0;
83024;PMS5003;72839;53.326;-1.496;2023-09-18T20:05:14;1;1;
83024;PMS5003;72839;53.326;-1.496;2023-09-18T20:09:41;0;0;
83024;PMS5003;72839;53.326;-1.496;2023-09-18T20:12:27;0;0;
83024;PMS5003;72839;53.326;-1.496;2023-09-18T20:15:12;0;0;
83024;PMS5003;72839;53.326;-1.496;2023-09-18T20:17:53;1;1;
83024;PMS5003;72839;53.326;-1.496;2023-09-18T20:20:24;1;0;
83024;PMS5003;72839;53.326;-1.496;2023-09-18T20:23:03;0;0;
83024;PMS5003;72839;53.326;-1.496;2023-09-18T20:25:54;0;0;
83024;PMS5003;72839;53.326;-1.496;2023-09-18T20:28:22;0;0;
83024;PMS5003;72839;53.326;-1.496;2023-09-18T20:30:50;0;0;
83024;PMS5003;72839;53.326;-1.496;2023-09-18T20:33:33;0;0;
83024;PMS5003;72839;53.326;-1.496;2023-09-18T20:36:15;0;0;
83024;PMS5003;72839;53.326;-1.496;2023-09-18T20:39:18;0;0;
83024;PMS5003;72839;53.326;-1.496;2023-09-18T20:42:01;0;0;
83024;PMS5003;72839;53.326;-1.496;2023-09-18T20:44:27;0;0;
83024;PMS5003;72839;53.326;-1.496;2023-09-18T20:46:56;0;0;
83024;PMS5003;72839;53.326;-1.496;2023-09-18T20:49:37;0;0;
83024;PMS5003;72839;53.326;-1.496;2023-09-18T20:52:55;0;0;
83024;PMS5003;72839;53.326;-1.496;2023-09-18T20:55:52;0;0;
83024;PMS5003;72839;53.326;-1.496;2023-09-18T20:58:40;0;0;
83024;PMS5003;72839;53.326;-1.496;2023-09-18T21:01:26;0;0;
83024;PMS5003;72839;53.326;-1.496;2023-09-18T21:04:50;0;0;
83024;PMS5003;72839;53.326;-1.496;2023-09-18T21:07:23;0;0;
83024;PMS5003;72839;53.326;-1.496;2023-09-18T21:10:10;0;0;
83024;PMS5003;72839;53.326;-1.496;2023-09-18T21:13:49;0;0;
83024;PMS5003;72839;53.326;-1.496;2023-09-18T21:16:47;0;0;
83024;PMS5003;72839;53.326;-1.496;2023-09-18T21:20:26;0;0;
83024;PMS5003;72839;53.326;-1.496;2023-09-18T21:23:20;0;0;
83024;PMS5003;72839;53.326;-1.496;2023-09-18T21:26:32;0;0;
83024;PMS5003;72839;53.326;-1.496;2023-09-18T21:29:39;0;0;
83024;PMS5003;72839;53.326;-1.496;2023-09-18T21:33:09;0;0;
83024;PMS5003;72839;53.326;-1.496;2023-09-18T21:36:50;0;0;
83024;PMS5003;72839;53.326;-1.496;2023-09-18T21:39:38;2;0;
83024;PMS5003;72839;53.326;-1.496;2023-09-18T21:42:30;0;0;
83024;PMS5003;72839;53.326;-1.496;2023-09-18T21:45:15;1;0;
83024;PMS5003;72839;53.326;-1.496;2023-09-18T21:48:13;0;0;
83024;PMS5003;72839;53.326;-1.496;2023-09-18T21:50:42;0;0;
83024;PMS5003;72839;53.326;-1.496;2023-09-18T21:53:38;0;0;